Time;durP1;ratioP1;P1;durP2;ratioP2;P2;SDS_P1;SDS_P2;PMS_P1;PMS_P2;Temp;Humidity;BMP_temperature;BMP_pressure;BME280_temperature;BME280_humidity;BME280_pressure;Samples;Min_cycle;Max_cycle;Signal;HPM_P1;HPM_P2
2021/05/06 16:33:54;;;;;;;10.98;4.22;;;25.70;52.40;;;;;;5078147;22;20067;-51
2021/05/06 16:36:30;;;;;;;6.43;3.58;;;25.70;52.30;;;;;;5071082;28;20043;-51
2021/05/06 16:44:26;;;;;;;4.82;2.58;;;25.60;52.00;;;;;;4989720;28;20089;-52
2021/05/06 16:47:01;;;;;;;4.72;2.75;;;25.60;52.00;;;;;;4989016;28;20045;-51
2021/05/06 16:49:28;;;;;;;4.47;2.83;;;25.60;51.70;;;;;;4990084;28;20089;-52
2021/05/06 16:51:55;;;;;;;4.95;2.35;;;25.60;51.70;;;;;;4989618;28;20034;-52
2021/05/06 16:54:21;;;;;;;6.65;3.03;;;25.60;51.50;;;;;;4989334;28;20559;-51
2021/05/06 16:56:50;;;;;;;4.82;3.03;;;25.60;51.40;;;;;;4989559;28;20038;-51
2021/05/06 16:59:17;;;;;;;3.88;2.83;;;25.60;51.50;;;;;;4989165;28;20050;-51
2021/05/06 17:01:45;;;;;;;6.45;2.83;;;25.50;51.30;;;;;;4989503;28;20053;-51
2021/05/06 17:04:12;;;;;;;4.00;2.58;;;25.50;51.00;;;;;;4989237;28;20170;-51
2021/05/06 17:06:39;;;;;;;4.82;2.65;;;25.50;51.10;;;;;;4989566;28;20042;-51
2021/05/06 17:09:09;;;;;;;4.47;3.33;;;25.50;51.20;;;;;;4988900;28;20046;-51
2021/05/06 17:11:36;;;;;;;2.55;2.28;;;25.50;51.30;;;;;;4989346;28;20428;-51
2021/05/06 17:14:04;;;;;;;4.65;2.55;;;25.50;51.30;;;;;;4989570;28;20459;-51
2021/05/06 17:16:36;;;;;;;3.58;2.30;;;25.50;51.20;;;;;;4989768;28;20030;-52
2021/05/06 17:19:03;;;;;;;2.42;2.22;;;25.50;51.20;;;;;;4989550;28;20085;-52
2021/05/06 17:21:30;;;;;;;4.25;2.42;;;25.50;51.10;;;;;;5033810;28;20119;-52
2021/05/06 17:23:55;;;;;;;5.43;2.03;;;25.50;50.90;;;;;;5070791;28;20469;-51
2021/05/06 17:26:22;;;;;;;4.50;2.33;;;25.50;50.90;;;;;;5071161;28;20123;-51
2021/05/06 17:28:48;;;;;;;3.80;2.35;;;25.50;50.80;;;;;;5070749;28;20047;-51
2021/05/06 17:31:15;;;;;;;3.45;2.20;;;25.50;50.80;;;;;;5071119;28;20413;-51
2021/05/06 17:33:43;;;;;;;5.13;2.47;;;25.50;50.70;;;;;;5052622;28;20516;-53
2021/05/06 17:36:10;;;;;;;3.92;2.40;;;25.50;50.60;;;;;;5070899;28;20112;-53
2021/05/06 17:38:40;;;;;;;4.00;2.25;;;25.50;50.70;;;;;;5070893;28;20036;-53
2021/05/06 17:41:06;;;;;;;4.25;2.55;;;25.50;50.80;;;;;;5069790;28;20068;-53
2021/05/06 17:43:33;;;;;;;5.07;2.90;;;25.40;50.70;;;;;;5070470;28;20478;-53
2021/05/06 17:46:00;;;;;;;5.47;2.70;;;25.40;50.90;;;;;;5070551;28;20040;-53
2021/05/06 17:48:26;;;;;;;4.00;2.70;;;25.40;51.10;;;;;;5070949;28;20044;-53
2021/05/06 17:50:53;;;;;;;3.97;2.38;;;25.40;51.20;;;;;;5070686;28;20036;-53
2021/05/06 17:53:20;;;;;;;4.50;3.10;;;25.40;51.20;;;;;;5070979;28;20415;-53
2021/05/06 17:55:46;;;;;;;5.90;3.10;;;25.40;51.30;;;;;;5052897;28;20558;-53
2021/05/06 17:58:12;;;;;;;4.03;3.03;;;25.40;51.40;;;;;;5070958;28;20536;-54
2021/05/06 18:00:38;;;;;;;3.90;3.10;;;25.40;51.40;;;;;;5070818;28;20035;-53
2021/05/06 18:03:05;;;;;;;4.90;3.17;;;25.40;51.40;;;;;;5070991;28;20508;-54
2021/05/06 18:05:31;;;;;;;5.30;3.28;;;25.40;51.40;;;;;;5071016;28;20409;-53
2021/05/06 18:07:57;;;;;;;7.38;3.45;;;25.40;51.50;;;;;;5070916;28;20106;-54
2021/05/06 18:10:28;;;;;;;4.30;3.00;;;25.40;51.50;;;;;;5070928;28;20040;-53
2021/05/06 18:12:56;;;;;;;4.20;3.55;;;25.40;51.60;;;;;;5070733;28;20044;-53
2021/05/06 18:15:22;;;;;;;5.63;3.38;;;25.40;51.80;;;;;;5070706;28;20120;-54
2021/05/06 18:17:49;;;;;;;3.67;2.95;;;25.30;51.80;;;;;;5052878;28;20120;-53
2021/05/06 18:20:15;;;;;;;5.05;3.42;;;25.30;51.80;;;;;;5070544;28;20029;-53
2021/05/06 18:22:42;;;;;;;5.97;3.20;;;25.30;51.80;;;;;;5070758;28;20033;-52
2021/05/06 18:25:09;;;;;;;3.83;3.50;;;25.30;51.90;;;;;;5072811;28;20394;-53
2021/05/06 18:27:35;;;;;;;7.10;4.65;;;25.30;52.00;;;;;;5074871;28;20389;-52
2021/05/06 18:30:08;;;;;;;7.60;4.18;;;25.30;52.00;;;;;;5074448;28;20108;-52
2021/05/06 18:32:35;;;;;;;7.45;4.70;;;25.30;52.20;;;;;;5056318;28;20416;-53
2021/05/06 18:35:02;;;;;;;4.68;4.15;;;25.30;52.20;;;;;;5074504;28;20123;-53
2021/05/06 18:37:29;;;;;;;6.55;4.03;;;25.30;52.20;;;;;;5074556;28;20083;-53
2021/05/06 18:39:55;;;;;;;8.80;4.32;;;25.30;52.30;;;;;;5073999;28;20036;-53
2021/05/06 18:42:21;;;;;;;6.00;4.38;;;25.30;52.40;;;;;;5074094;28;20477;-53
2021/05/06 18:44:47;;;;;;;4.43;3.72;;;25.20;52.40;;;;;;5074044;28;20139;-53
2021/05/06 18:47:14;;;;;;;8.18;4.25;;;25.20;52.50;;;;;;5073895;28;20486;-54
2021/05/06 18:49:40;;;;;;;7.13;4.93;;;25.20;52.70;;;;;;5073765;28;20505;-52
2021/05/06 18:52:06;;;;;;;4.65;3.80;;;25.20;52.70;;;;;;5073823;28;20090;-53
2021/05/06 18:54:32;;;;;;;7.00;3.97;;;25.20;52.80;;;;;;5073545;28;20041;-53
2021/05/06 18:56:58;;;;;;;8.00;4.53;;;25.20;53.00;;;;;;5073554;28;20448;-52
2021/05/06 18:59:24;;;;;;;6.35;4.38;;;25.20;53.20;;;;;;5073668;28;20063;-52
2021/05/06 19:01:50;;;;;;;5.43;4.28;;;25.20;53.20;;;;;;5056033;28;20600;-52
2021/05/06 19:04:19;;;;;;;5.55;4.35;;;25.10;53.20;;;;;;5074044;28;20040;-52
2021/05/06 19:06:45;;;;;;;7.10;4.35;;;25.20;53.50;;;;;;5074119;28;20025;-51
2021/05/06 19:09:12;;;;;;;5.50;4.43;;;25.10;53.40;;;;;;5073957;28;20040;-51
2021/05/06 19:11:39;;;;;;;5.50;4.30;;;25.10;53.40;;;;;;5073747;28;20428;-52
2021/05/06 19:14:07;;;;;;;6.22;4.55;;;25.10;53.50;;;;;;5074000;28;20037;-53
2021/05/06 19:16:33;;;;;;;5.78;4.38;;;25.20;53.60;;;;;;5073910;28;20508;-52
2021/05/06 19:18:59;;;;;;;7.18;5.43;;;25.10;53.60;;;;;;5074036;28;20060;-52
2021/05/06 19:21:25;;;;;;;8.80;6.32;;;25.10;53.70;;;;;;5073997;28;20068;-52
2021/05/06 19:23:51;;;;;;;11.70;8.02;;;25.10;53.70;;;;;;5073821;28;20036;-52
2021/05/06 19:26:18;;;;;;;8.57;6.95;;;25.10;54.00;;;;;;5073725;28;20044;-52
2021/05/06 19:28:47;;;;;;;7.97;7.18;;;25.10;54.10;;;;;;5073571;28;20122;-53
2021/05/06 19:31:14;;;;;;;10.02;6.70;;;25.10;54.40;;;;;;5073970;28;20287;-53
2021/05/06 19:33:41;;;;;;;9.32;7.50;;;25.10;54.30;;;;;;5073529;28;20055;-53
2021/05/06 19:36:09;;;;;;;8.68;6.85;;;25.10;54.40;;;;;;5073192;28;20095;-53
2021/05/06 19:38:39;;;;;;;8.05;6.30;;;25.10;54.50;;;;;;5073682;28;20069;-53
2021/05/06 19:41:07;;;;;;;8.02;6.20;;;25.10;54.50;;;;;;5073417;28;20037;-53
2021/05/06 19:43:39;;;;;;;8.30;6.65;;;25.10;54.80;;;;;;5073428;28;20055;-53
2021/05/06 19:46:27;;;;;;;7.82;6.60;;;25.10;54.50;;;;;;5056174;28;20036;-54
2021/05/06 19:48:54;;;;;;;8.73;6.75;;;25.10;54.60;;;;;;5073382;28;20622;-53
2021/05/06 19:51:20;;;;;;;9.02;7.57;;;25.00;54.50;;;;;;5073299;28;20084;-53
2021/05/06 19:53:47;;;;;;;10.32;7.38;;;25.10;54.60;;;;;;5073143;28;20455;-53
2021/05/06 19:56:13;;;;;;;8.18;7.18;;;25.00;54.60;;;;;;5073586;28;20043;-53
2021/05/06 19:58:39;;;;;;;11.82;8.70;;;25.00;54.70;;;;;;5055369;28;20402;-53
2021/05/06 20:01:06;;;;;;;10.13;7.80;;;25.00;54.80;;;;;;5073330;28;20028;-52
2021/05/06 20:03:33;;;;;;;10.00;7.45;;;25.00;54.80;;;;;;5055255;28;20036;-54
2021/05/06 20:06:00;;;;;;;9.50;7.30;;;25.00;54.90;;;;;;5072721;28;20082;-53
2021/05/06 20:08:26;;;;;;;8.75;7.80;;;24.90;54.90;;;;;;5073014;28;20044;-53
2021/05/06 20:10:52;;;;;;;8.00;7.20;;;25.00;55.00;;;;;;5072825;28;20425;-53
2021/05/06 20:13:18;;;;;;;9.60;7.93;;;25.00;55.00;;;;;;5072747;28;20140;-53
2021/05/06 20:15:44;;;;;;;9.32;7.05;;;24.90;55.10;;;;;;5072536;28;20066;-52
2021/05/06 20:18:11;;;;;;;9.00;6.97;;;24.90;55.10;;;;;;5072701;28;20547;-52
2021/05/06 20:20:56;;;;;;;7.95;7.00;;;24.90;55.10;;;;;;5055107;28;20064;-52
2021/05/06 20:23:22;;;;;;;7.57;6.80;;;24.90;55.30;;;;;;5072975;28;20115;-53
2021/05/06 20:25:48;;;;;;;8.93;7.32;;;24.90;55.20;;;;;;5072944;28;20111;-54
2021/05/06 20:28:14;;;;;;;10.07;7.40;;;24.90;55.30;;;;;;5072673;28;20036;-52
2021/05/06 20:30:40;;;;;;;8.00;7.20;;;24.90;55.30;;;;;;5072870;28;20070;-52
2021/05/06 20:33:07;;;;;;;10.15;7.45;;;24.90;55.40;;;;;;5072445;28;20448;-53
2021/05/06 20:35:33;;;;;;;9.63;7.35;;;24.90;55.40;;;;;;5072753;28;20068;-54
2021/05/06 20:37:59;;;;;;;9.85;7.68;;;24.90;55.50;;;;;;5072838;28;20032;-52
2021/05/06 20:40:25;;;;;;;8.75;7.85;;;24.90;55.50;;;;;;5072846;28;20036;-52
2021/05/06 20:42:54;;;;;;;8.88;7.55;;;24.90;55.50;;;;;;5072103;28;20119;-52
2021/05/06 20:45:21;;;;;;;8.35;7.43;;;24.90;55.50;;;;;;5072272;28;20464;-52
2021/05/06 20:47:47;;;;;;;9.68;8.70;;;24.90;55.60;;;;;;5071317;28;20040;-52
2021/05/06 20:50:14;;;;;;;9.93;8.35;;;24.90;55.60;;;;;;5053945;28;20367;-52
2021/05/06 20:52:42;;;;;;;11.90;8.25;;;24.90;55.70;;;;;;5072395;28;20033;-52
2021/05/06 20:55:09;;;;;;;7.00;6.40;;;24.90;55.70;;;;;;5054287;28;20412;-52
2021/05/06 20:57:35;;;;;;;7.93;7.13;;;24.90;55.80;;;;;;5071989;28;20041;-52
2021/05/06 21:00:01;;;;;;;7.95;7.10;;;24.90;56.00;;;;;;5072015;28;20039;-53
2021/05/06 21:02:27;;;;;;;8.32;7.53;;;24.90;55.90;;;;;;5053678;28;20036;-52
2021/05/06 21:04:56;;;;;;;8.85;7.32;;;24.80;56.00;;;;;;5071843;28;20036;-53
2021/05/06 21:07:22;;;;;;;9.90;7.53;;;24.80;56.00;;;;;;5072288;28;20042;-53
2021/05/06 21:09:48;;;;;;;7.78;6.93;;;24.80;56.00;;;;;;5071785;28;20186;-53
2021/05/06 21:12:15;;;;;;;13.93;6.20;;;24.80;56.10;;;;;;5071314;28;20500;-52
2021/05/06 21:14:41;;;;;;;6.85;6.15;;;24.80;56.20;;;;;;5053619;28;20466;-53
2021/05/06 21:17:13;;;;;;;8.20;6.72;;;24.80;56.20;;;;;;5071329;28;20063;-53
2021/05/06 21:19:40;;;;;;;7.53;6.75;;;24.80;56.30;;;;;;5071798;28;20111;-53
2021/05/06 21:22:06;;;;;;;5.93;5.30;;;24.80;56.30;;;;;;5071482;28;20040;-53
2021/05/06 21:24:33;;;;;;;7.68;5.68;;;24.80;56.20;;;;;;5071700;28;20040;-53
2021/05/06 21:26:59;;;;;;;8.82;6.38;;;24.80;56.20;;;;;;5053643;28;20477;-53
2021/05/06 21:29:26;;;;;;;8.00;6.43;;;24.80;56.20;;;;;;5071832;28;20039;-54
2021/05/06 21:31:54;;;;;;;7.72;5.75;;;24.80;56.30;;;;;;5071174;28;20033;-53
2021/05/06 21:34:21;;;;;;;8.00;6.57;;;24.70;56.30;;;;;;5071431;28;20045;-53
2021/05/06 21:36:47;;;;;;;7.60;5.68;;;24.70;56.30;;;;;;5071372;28;20047;-53
2021/05/06 21:39:14;;;;;;;5.93;5.32;;;24.70;56.20;;;;;;5071493;28;20052;-53
2021/05/06 21:41:42;;;;;;;5.90;5.22;;;24.80;56.30;;;;;;5071448;28;20059;-53
2021/05/06 21:44:10;;;;;;;7.53;5.13;;;24.80;56.30;;;;;;5071749;28;20048;-53
2021/05/06 21:46:36;;;;;;;5.93;4.75;;;24.80;56.80;;;;;;5071094;28;20048;-53
2021/05/06 21:49:04;;;;;;;6.90;5.10;;;24.80;56.20;;;;;;5071591;28;20469;-54
2021/05/06 21:51:31;;;;;;;5.82;5.20;;;24.80;56.10;;;;;;5071142;28;20064;-54
2021/05/06 21:53:57;;;;;;;8.13;5.50;;;24.80;56.10;;;;;;5071240;28;20067;-54
2021/05/06 21:56:23;;;;;;;8.65;5.90;;;24.70;56.10;;;;;;5071381;28;20036;-54
2021/05/06 21:58:50;;;;;;;8.13;5.68;;;24.80;56.10;;;;;;5070919;28;20036;-54
2021/05/06 22:01:17;;;;;;;6.72;4.90;;;24.70;56.10;;;;;;5071185;28;20462;-54
2021/05/06 22:03:43;;;;;;;5.82;4.57;;;24.80;56.10;;;;;;5069305;28;20048;-54
2021/05/06 22:06:09;;;;;;;6.50;5.43;;;24.70;56.00;;;;;;5071154;28;20037;-54
2021/05/06 22:08:36;;;;;;;6.78;5.55;;;24.80;56.10;;;;;;5071065;28;20040;-54
2021/05/06 22:11:03;;;;;;;6.88;5.50;;;24.70;56.00;;;;;;5053296;28;20047;-54
2021/05/06 22:13:29;;;;;;;5.65;5.15;;;24.70;56.00;;;;;;5070815;28;20035;-54
2021/05/06 22:15:55;;;;;;;7.93;6.18;;;24.80;56.10;;;;;;5071156;28;20029;-54
2021/05/06 22:18:22;;;;;;;7.20;6.00;;;24.70;56.10;;;;;;5071128;28;20145;-54
2021/05/06 22:20:52;;;;;;;6.22;5.68;;;24.70;56.10;;;;;;5052887;28;20120;-54
2021/05/06 22:23:19;;;;;;;6.93;6.20;;;24.70;56.10;;;;;;5052836;28;20485;-53
2021/05/06 22:25:46;;;;;;;6.63;5.88;;;24.70;56.10;;;;;;5053017;28;20117;-54
2021/05/06 22:28:13;;;;;;;6.63;5.93;;;24.70;56.10;;;;;;5070825;28;20116;-54
2021/05/06 22:30:39;;;;;;;6.45;5.47;;;24.70;56.00;;;;;;5071001;28;20036;-54
2021/05/06 22:33:06;;;;;;;6.32;5.72;;;24.70;56.00;;;;;;5070730;28;20059;-53
2021/05/06 22:35:32;;;;;;;9.38;6.63;;;24.70;56.10;;;;;;5070845;28;20044;-54
2021/05/06 22:37:59;;;;;;;7.25;6.55;;;24.70;56.10;;;;;;5070974;28;20037;-54
2021/05/06 22:40:25;;;;;;;7.00;6.25;;;24.70;56.00;;;;;;5070688;28;20060;-54
2021/05/06 22:42:51;;;;;;;8.10;6.88;;;24.70;56.10;;;;;;5070826;28;20120;-54
2021/05/06 22:45:17;;;;;;;7.80;6.32;;;24.70;56.10;;;;;;5071011;28;20110;-54
2021/05/06 22:47:47;;;;;;;8.00;7.30;;;24.70;56.10;;;;;;5070843;28;20111;-54
2021/05/06 22:50:14;;;;;;;7.70;7.00;;;24.70;56.00;;;;;;5070660;28;20064;-54
2021/05/06 22:52:40;;;;;;;7.00;6.30;;;24.70;56.00;;;;;;5070723;28;20036;-54
2021/05/06 22:55:09;;;;;;;6.63;5.93;;;24.70;56.00;;;;;;5070552;28;20032;-54
2021/05/06 22:57:35;;;;;;;7.80;6.97;;;24.70;56.00;;;;;;5070688;28;20489;-54
2021/05/06 23:00:09;;;;;;;8.27;7.18;;;24.70;56.00;;;;;;5070710;28;20032;-54
2021/05/06 23:02:36;;;;;;;9.95;6.53;;;24.70;56.10;;;;;;5070637;28;20059;-54
2021/05/06 23:05:03;;;;;;;9.32;6.80;;;24.70;56.00;;;;;;5070452;28;20040;-54
2021/05/06 23:07:29;;;;;;;10.77;7.85;;;24.70;56.00;;;;;;5070603;28;20044;-54
2021/05/06 23:09:55;;;;;;;8.95;7.68;;;24.70;56.00;;;;;;5070808;28;20501;-55
2021/05/06 23:12:22;;;;;;;11.90;8.25;;;24.70;56.10;;;;;;5074396;28;20066;-54
2021/05/06 23:14:48;;;;;;;9.43;8.27;;;24.70;56.10;;;;;;5074499;28;20083;-54
2021/05/06 23:17:14;;;;;;;7.93;7.13;;;24.60;56.00;;;;;;5074488;28;20454;-54
2021/05/06 23:19:42;;;;;;;10.65;8.63;;;24.70;56.10;;;;;;5056582;28;20107;-54
2021/05/06 23:22:08;;;;;;;8.80;7.95;;;24.70;56.00;;;;;;5074490;28;20043;-54
2021/05/06 23:24:34;;;;;;;9.30;8.50;;;24.70;56.10;;;;;;5074244;28;20036;-54
2021/05/06 23:27:00;;;;;;;8.88;8.10;;;24.60;56.00;;;;;;5073976;28;20493;-54
2021/05/06 23:29:26;;;;;;;11.52;8.57;;;24.60;56.60;;;;;;5074118;28;20064;-54
2021/05/06 23:31:52;;;;;;;10.85;8.30;;;24.60;56.00;;;;;;5073823;28;20123;-54
2021/05/06 23:34:19;;;;;;;12.85;8.98;;;24.60;56.00;;;;;;5073835;28;20049;-54
2021/05/06 23:36:45;;;;;;;9.13;8.10;;;24.60;56.00;;;;;;5073914;28;20094;-55
2021/05/06 23:39:11;;;;;;;9.32;8.43;;;24.60;56.00;;;;;;5073978;28;20045;-54
2021/05/06 23:41:37;;;;;;;11.68;8.35;;;24.60;56.00;;;;;;5073874;28;20035;-54
2021/05/06 23:44:03;;;;;;;9.55;8.45;;;24.60;56.00;;;;;;5073917;28;20501;-55
2021/05/06 23:46:30;;;;;;;10.93;9.82;;;24.60;56.00;;;;;;5055858;28;20501;-54
2021/05/06 23:48:56;;;;;;;10.75;8.93;;;24.60;56.00;;;;;;5073523;28;20385;-54
2021/05/06 23:51:22;;;;;;;10.00;9.10;;;24.60;56.00;;;;;;5073671;28;20053;-54
2021/05/06 23:53:48;;;;;;;9.45;8.18;;;24.60;56.10;;;;;;5073395;28;20060;-54
2021/05/06 23:56:14;;;;;;;10.27;9.15;;;24.60;56.10;;;;;;5073482;28;20044;-54
2021/05/06 23:58:41;;;;;;;10.82;9.10;;;24.60;56.00;;;;;;5073472;28;20029;-54
